createdAt,value
2018-02-04T00:01:44.035Z,64.18
2018-02-04T00:04:09.959Z,65.11
2018-02-04T00:06:35.941Z,64.20
2018-02-04T00:09:01.937Z,63.73
2018-02-04T00:11:27.861Z,64.51
2018-02-04T00:16:26.196Z,64.99
2018-02-04T00:18:52.146Z,64.48
2018-02-04T00:21:18.094Z,63.59
2018-02-04T00:23:44.046Z,63.14
2018-02-04T00:26:09.974Z,64.30
2018-02-04T00:28:35.906Z,64.27
2018-02-04T00:31:01.826Z,64.34
2018-02-04T00:33:27.750Z,63.73
2018-02-04T00:35:53.713Z,63.33
2018-02-04T00:38:19.658Z,63.35
2018-02-04T00:40:45.692Z,62.36
2018-02-04T00:43:11.636Z,63.21
2018-02-04T00:45:37.591Z,64.46
2018-02-04T00:48:03.521Z,62.58
2018-02-04T00:50:29.446Z,63.68
2018-02-04T00:52:55.400Z,65.01
2018-02-04T00:55:21.350Z,63.44
2018-02-04T00:57:47.279Z,63.85
2018-02-04T01:00:13.239Z,63.39
2018-02-04T01:02:39.172Z,63.48
2018-02-04T01:05:05.113Z,63.26
2018-02-04T01:07:31.053Z,63.17
2018-02-04T01:09:57.011Z,63.63
2018-02-04T01:12:22.960Z,63.14
2018-02-04T01:14:48.926Z,62.67
2018-02-04T01:17:14.893Z,63.03
2018-02-04T01:19:40.830Z,63.77
2018-02-04T01:22:06.761Z,64.18
2018-02-04T01:24:32.696Z,64.99
2018-02-04T01:26:58.628Z,65.05
2018-02-04T01:29:24.559Z,64.05
2018-02-04T01:31:50.516Z,64.52
2018-02-04T01:34:16.467Z,64.32
2018-02-04T01:36:42.392Z,63.03
2018-02-04T01:39:08.371Z,62.26
2018-02-04T01:41:34.325Z,62.29
2018-02-04T01:44:00.257Z,63.40
2018-02-04T01:46:26.199Z,64.03
2018-02-04T01:48:52.118Z,64.34
2018-02-04T01:51:18.051Z,65.07
2018-02-04T01:53:43.974Z,63.74
2018-02-04T01:56:09.914Z,64.21
2018-02-04T01:58:35.837Z,64.96
2018-02-04T02:01:01.793Z,66.09
2018-02-04T02:03:27.725Z,64.87
2018-02-04T02:05:53.711Z,64.53
2018-02-04T02:08:19.639Z,64.60
2018-02-04T02:10:45.807Z,65.19
2018-02-04T02:13:11.737Z,65.78
2018-02-04T02:15:37.671Z,65.42
2018-02-04T02:18:03.611Z,63.97
2018-02-04T02:20:29.560Z,65.03
2018-02-04T02:22:55.513Z,64.94
2018-02-04T02:25:21.462Z,65.11
2018-02-04T02:27:47.387Z,66.38
2018-02-04T02:30:13.317Z,66.71
2018-02-04T02:32:39.239Z,66.46
2018-02-04T02:35:05.170Z,66.39
2018-02-04T02:37:31.109Z,66.25
2018-02-04T02:39:57.049Z,67.05
2018-02-04T02:42:22.990Z,68.71
2018-02-04T02:44:48.931Z,68.80
2018-02-04T02:47:14.873Z,67.51
2018-02-04T02:49:41.055Z,66.97
2018-02-04T02:52:06.978Z,66.87
2018-02-04T02:54:32.931Z,68.84
2018-02-04T02:56:58.885Z,68.05
2018-02-04T02:59:24.837Z,67.55
2018-02-04T03:01:50.763Z,68.21
2018-02-04T03:04:16.707Z,66.66
2018-02-04T03:06:42.655Z,68.04
2018-02-04T03:09:08.621Z,68.13
2018-02-04T03:11:34.547Z,65.71
2018-02-04T03:14:00.493Z,64.43
2018-02-04T03:16:26.422Z,65.79
2018-02-04T03:18:52.375Z,65.32
2018-02-04T03:21:18.293Z,64.65
2018-02-04T03:23:44.231Z,64.65
2018-02-04T03:26:10.161Z,66.01
2018-02-04T03:28:36.101Z,66.00
2018-02-04T03:31:02.062Z,65.68
2018-02-04T03:33:28.003Z,65.80
2018-02-04T03:35:53.937Z,66.51
2018-02-04T03:38:19.888Z,66.94
2018-02-04T03:40:45.825Z,66.47
2018-02-04T03:43:11.749Z,65.21
2018-02-04T03:45:37.669Z,65.30
2018-02-04T03:48:03.619Z,64.76
2018-02-04T03:50:29.549Z,65.56
2018-02-04T03:52:55.573Z,66.47
2018-02-04T03:55:21.497Z,66.29
2018-02-04T03:57:47.440Z,65.37
2018-02-04T04:00:13.659Z,66.12
2018-02-04T04:02:40.309Z,66.63
2018-02-04T04:05:06.265Z,66.78
2018-02-04T04:07:32.201Z,68.56
2018-02-04T04:09:58.129Z,67.58
2018-02-04T04:12:24.077Z,66.01
2018-02-04T04:14:50.004Z,66.77
2018-02-04T04:17:15.941Z,66.79
2018-02-04T04:19:41.875Z,67.31
2018-02-04T04:22:07.808Z,66.15
2018-02-04T04:24:33.731Z,65.56
2018-02-04T04:26:59.699Z,67.71
2018-02-04T04:29:25.615Z,66.97
2018-02-04T04:31:51.564Z,66.89
2018-02-04T04:34:17.499Z,67.66
2018-02-04T04:36:43.450Z,68.46
2018-02-04T04:39:09.399Z,68.34
2018-02-04T04:41:35.337Z,67.86
2018-02-04T04:44:01.277Z,68.73
2018-02-04T04:46:30.807Z,67.69
2018-02-04T04:48:56.894Z,67.47
2018-02-04T04:51:22.886Z,68.14
2018-02-04T04:53:48.810Z,66.63
2018-02-04T04:56:14.757Z,67.27
2018-02-04T04:58:40.690Z,66.86
2018-02-04T05:01:06.626Z,67.95
2018-02-04T05:03:32.552Z,67.94
2018-02-04T05:05:58.505Z,67.60
2018-02-04T05:08:24.449Z,67.15
2018-02-04T05:10:50.388Z,67.48
2018-02-04T05:13:16.314Z,67.53
2018-02-04T05:15:42.238Z,69.05
2018-02-04T05:18:08.194Z,67.92
2018-02-04T05:20:34.175Z,68.23
2018-02-04T05:23:00.104Z,67.96
2018-02-04T05:25:26.051Z,67.41
2018-02-04T05:27:51.994Z,68.79
2018-02-04T05:30:17.958Z,71.22
2018-02-04T05:32:43.901Z,69.10
2018-02-04T05:35:09.860Z,71.15
2018-02-04T05:37:35.818Z,70.03
2018-02-04T05:40:01.763Z,71.22
2018-02-04T05:42:28.011Z,71.03
2018-02-04T05:44:53.965Z,70.87
2018-02-04T05:47:19.918Z,71.25
2018-02-04T05:49:45.851Z,68.06
2018-02-04T05:52:11.834Z,68.15
2018-02-04T05:54:37.767Z,68.55
2018-02-04T05:57:03.700Z,70.18
2018-02-04T05:59:29.668Z,68.37
2018-02-04T06:01:55.648Z,70.29
2018-02-04T06:04:21.584Z,68.39
2018-02-04T06:06:47.507Z,67.85
2018-02-04T06:09:13.457Z,67.89
2018-02-04T06:11:39.405Z,68.24
2018-02-04T06:14:05.369Z,67.56
2018-02-04T06:16:31.299Z,66.89
2018-02-04T06:18:57.296Z,68.74
2018-02-04T06:21:24.021Z,68.05
2018-02-04T06:23:49.971Z,69.98
2018-02-04T06:26:15.941Z,70.94
2018-02-04T06:28:41.868Z,69.52
2018-02-04T06:31:07.800Z,69.57
2018-02-04T06:33:33.761Z,69.27
2018-02-04T06:35:59.695Z,69.30
2018-02-04T06:38:25.681Z,68.39
2018-02-04T06:40:51.629Z,69.05
2018-02-04T06:43:17.590Z,67.96
2018-02-04T06:45:43.559Z,68.61
2018-02-04T06:48:09.573Z,68.39
2018-02-04T06:50:38.973Z,67.38
2018-02-04T06:53:04.910Z,67.06
2018-02-04T06:55:30.848Z,69.47
2018-02-04T06:57:56.786Z,68.82
2018-02-04T07:00:22.764Z,67.97
2018-02-04T07:02:48.679Z,68.73
2018-02-04T07:07:46.671Z,70.13
2018-02-04T07:10:12.624Z,70.40
2018-02-04T07:12:38.554Z,69.25
2018-02-04T07:15:05.568Z,70.38
2018-02-04T07:17:31.590Z,69.01
2018-02-04T07:19:57.539Z,68.75
2018-02-04T07:22:23.507Z,69.20
2018-02-04T07:24:49.557Z,67.72
2018-02-04T07:27:15.507Z,68.79
2018-02-04T07:29:41.455Z,69.46
2018-02-04T07:32:07.421Z,71.62
2018-02-04T07:34:33.351Z,71.78
2018-02-04T07:36:59.285Z,72.08
2018-02-04T07:39:25.289Z,70.88
2018-02-04T07:41:51.459Z,71.69
2018-02-04T07:44:17.388Z,72.16
2018-02-04T07:46:43.393Z,71.17
2018-02-04T07:49:10.501Z,70.65
2018-02-04T07:51:36.755Z,68.52
2018-02-04T07:54:02.689Z,70.14
2018-02-04T07:56:28.636Z,69.71
2018-02-04T07:58:54.628Z,69.18
2018-02-04T08:01:20.580Z,69.73
2018-02-04T08:03:46.522Z,72.10
2018-02-04T08:06:14.548Z,71.03
2018-02-04T08:08:40.532Z,71.26
2018-02-04T08:11:06.458Z,72.33
2018-02-04T08:13:32.485Z,70.34
2018-02-04T08:15:58.406Z,70.16
2018-02-04T08:18:24.430Z,71.21
2018-02-04T08:20:50.358Z,72.27
2018-02-04T08:23:16.382Z,72.42
2018-02-04T08:25:42.324Z,72.21
2018-02-04T08:28:08.280Z,70.76
2018-02-04T08:30:34.223Z,73.04
2018-02-04T08:33:00.142Z,71.50
2018-02-04T08:35:26.082Z,70.75
2018-02-04T08:37:52.042Z,70.66
2018-02-04T08:40:17.970Z,71.02
2018-02-04T08:42:43.970Z,70.98
2018-02-04T08:45:09.924Z,70.22
2018-02-04T08:47:35.847Z,70.49
2018-02-04T08:50:01.866Z,72.29
2018-02-04T08:52:28.912Z,71.26
2018-02-04T08:54:54.868Z,70.43
2018-02-04T08:57:20.819Z,70.72
2018-02-04T08:59:46.869Z,69.61
2018-02-04T09:02:12.806Z,69.33
2018-02-04T09:04:38.734Z,71.10
2018-02-04T09:07:04.654Z,71.78
2018-02-04T09:09:30.614Z,71.19
2018-02-04T09:11:56.554Z,72.58
2018-02-04T09:14:22.491Z,71.72
2018-02-04T09:16:48.416Z,73.26
2018-02-04T09:19:14.476Z,70.57
2018-02-04T09:21:40.435Z,70.00
2018-02-04T09:24:06.402Z,70.90
2018-02-04T09:26:32.318Z,71.76
2018-02-04T09:28:58.317Z,70.21
2018-02-04T09:31:24.290Z,71.19
2018-02-04T09:33:50.328Z,70.82
2018-02-04T09:36:16.280Z,71.01
2018-02-04T09:38:42.207Z,71.10
2018-02-04T09:41:10.314Z,71.46
2018-02-04T09:43:36.222Z,70.79
2018-02-04T09:46:02.211Z,71.59
2018-02-04T09:48:28.228Z,70.78
2018-02-04T09:50:54.159Z,71.39
2018-02-04T09:53:20.083Z,74.13
2018-02-04T09:55:47.045Z,71.18
2018-02-04T09:58:12.978Z,71.99
2018-02-04T10:00:38.913Z,70.49
2018-02-04T10:03:04.890Z,70.75
2018-02-04T10:05:30.843Z,70.80
2018-02-04T10:07:56.772Z,69.37
2018-02-04T10:10:22.720Z,69.63
2018-02-04T10:12:48.653Z,70.46
2018-02-04T10:15:14.621Z,69.26
2018-02-04T10:17:40.606Z,69.89
2018-02-04T10:20:06.530Z,69.10
2018-02-04T10:22:32.533Z,68.98
2018-02-04T10:24:59.245Z,69.04
2018-02-04T10:27:25.205Z,69.75
2018-02-04T10:29:51.179Z,69.19
2018-02-04T10:32:17.141Z,68.31
2018-02-04T10:34:43.105Z,68.15
2018-02-04T10:37:10.069Z,68.33
2018-02-04T10:39:36.043Z,67.69
2018-02-04T10:42:02.017Z,67.83
2018-02-04T10:44:28.035Z,68.67
2018-02-04T10:46:55.086Z,67.97
2018-02-04T10:49:22.018Z,68.42
2018-02-04T10:51:48.084Z,68.19
2018-02-04T10:54:14.046Z,68.45
2018-02-04T10:56:40.005Z,67.50
2018-02-04T10:59:05.932Z,68.55
2018-02-04T11:01:31.873Z,67.71
2018-02-04T11:03:57.858Z,68.06
2018-02-04T11:06:23.782Z,66.83
2018-02-04T11:08:49.705Z,66.77
2018-02-04T11:11:15.695Z,65.95
2018-02-04T11:13:41.689Z,66.19
2018-02-04T11:16:07.603Z,65.99
2018-02-04T11:18:33.547Z,66.06
2018-02-04T11:20:59.481Z,66.35
2018-02-04T11:23:25.409Z,65.71
2018-02-04T11:25:51.425Z,66.14
2018-02-04T11:28:17.364Z,64.38
2018-02-04T11:30:43.302Z,64.59
2018-02-04T11:33:09.268Z,64.98
2018-02-04T11:35:35.376Z,64.21
2018-02-04T11:38:01.976Z,64.09
2018-02-04T11:40:27.939Z,64.12
2018-02-04T11:42:53.895Z,64.00
2018-02-04T11:45:19.822Z,63.38
2018-02-04T11:47:45.814Z,63.75
2018-02-04T11:50:11.746Z,64.62
2018-02-04T11:52:37.748Z,64.00
2018-02-04T11:55:04.770Z,63.28
2018-02-04T11:57:30.818Z,63.90
2018-02-04T11:59:56.776Z,63.78
2018-02-04T12:02:22.759Z,63.50
2018-02-04T12:04:48.779Z,64.32
2018-02-04T12:07:14.732Z,64.23
2018-02-04T12:09:40.678Z,65.81
2018-02-04T12:12:06.622Z,66.07
2018-02-04T12:14:32.592Z,64.47
2018-02-04T12:16:58.728Z,64.86
2018-02-04T12:19:24.672Z,66.17
2018-02-04T12:21:50.668Z,64.54
2018-02-04T12:24:16.694Z,63.11
2018-02-04T12:26:42.706Z,63.53
2018-02-04T12:29:08.669Z,64.49
2018-02-04T12:31:34.658Z,64.27
2018-02-04T12:34:00.583Z,62.17
2018-02-04T12:36:26.525Z,63.34
2018-02-04T12:38:53.616Z,63.17
2018-02-04T12:41:19.656Z,63.85
2018-02-04T12:43:45.601Z,64.16
2018-02-04T12:46:11.554Z,62.62
2018-02-04T12:48:37.482Z,62.72
2018-02-04T12:51:03.410Z,63.05
2018-02-04T12:53:29.351Z,63.93
2018-02-04T12:55:55.289Z,63.11
2018-02-04T12:58:21.294Z,63.31
2018-02-04T13:00:47.236Z,65.08
2018-02-04T13:03:13.243Z,64.11
2018-02-04T13:05:39.207Z,64.04
2018-02-04T13:08:05.177Z,64.84
2018-02-04T13:10:31.228Z,66.13
2018-02-04T13:12:57.164Z,68.15
2018-02-04T13:15:23.119Z,64.14
2018-02-04T13:17:49.149Z,64.18
2018-02-04T13:20:15.083Z,65.43
2018-02-04T13:22:41.063Z,65.12
2018-02-04T13:25:06.993Z,64.99
2018-02-04T13:27:33.031Z,63.49
2018-02-04T13:29:59.098Z,63.23
2018-02-04T13:32:25.021Z,63.82
2018-02-04T13:34:50.961Z,63.10
2018-02-04T13:37:16.895Z,62.40
2018-02-04T13:39:43.231Z,62.39
2018-02-04T13:42:09.174Z,62.55
2018-02-04T13:44:35.096Z,61.83
2018-02-04T13:47:01.020Z,61.95
2018-02-04T13:49:26.953Z,62.21
2018-02-04T13:51:52.900Z,62.05
2018-02-04T13:54:18.873Z,61.62
2018-02-04T13:56:44.812Z,62.59
2018-02-04T13:59:10.767Z,62.10
2018-02-04T14:01:36.759Z,61.87
2018-02-04T14:04:02.740Z,62.87
2018-02-04T14:06:28.703Z,62.57
2018-02-04T14:08:54.765Z,62.71
2018-02-04T14:11:20.721Z,62.29
2018-02-04T14:13:46.707Z,63.10
2018-02-04T14:16:12.672Z,61.91
2018-02-04T14:18:38.625Z,62.16
2018-02-04T14:21:04.635Z,62.22
2018-02-04T14:23:30.595Z,62.56
2018-02-04T14:25:56.534Z,62.49
2018-02-04T14:28:22.556Z,62.10
2018-02-04T14:30:48.497Z,61.83
2018-02-04T14:33:14.477Z,60.95
2018-02-04T14:35:40.489Z,62.31
2018-02-04T14:38:06.482Z,62.10
2018-02-04T14:40:32.411Z,62.52
2018-02-04T14:42:59.452Z,62.39
2018-02-04T14:45:25.401Z,62.01
2018-02-04T14:47:51.369Z,61.18
2018-02-04T14:50:19.364Z,61.79
2018-02-04T14:52:45.302Z,61.48
2018-02-04T14:55:11.298Z,61.54
2018-02-04T14:57:37.230Z,61.33
2018-02-04T15:00:03.176Z,61.19
2018-02-04T15:02:29.114Z,61.32
2018-02-04T15:04:55.054Z,61.57
2018-02-04T15:07:21.142Z,62.22
2018-02-04T15:09:49.186Z,61.37
2018-02-04T15:12:15.196Z,61.15
2018-02-04T15:14:42.252Z,60.40
2018-02-04T15:17:08.254Z,61.06
2018-02-04T15:19:34.260Z,61.25
2018-02-04T15:22:00.343Z,60.72
2018-02-04T15:24:26.292Z,60.36
2018-02-04T15:26:52.289Z,60.39
2018-02-04T15:29:18.271Z,60.68
2018-02-04T15:31:44.629Z,59.74
2018-02-04T15:34:10.633Z,59.77
2018-02-04T15:36:36.657Z,59.60
2018-02-04T15:39:02.675Z,60.26
2018-02-04T15:41:28.617Z,59.61
2018-02-04T15:43:55.351Z,60.96
2018-02-04T15:46:21.331Z,60.75
2018-02-04T15:48:47.605Z,60.28
2018-02-04T15:51:13.866Z,59.81
2018-02-04T15:53:40.550Z,60.37
2018-02-04T15:56:06.818Z,60.46
2018-02-04T15:58:34.077Z,59.88
2018-02-04T16:01:00.468Z,60.09
2018-02-04T16:03:26.739Z,60.07
2018-02-04T16:05:58.507Z,59.54
2018-02-04T16:08:24.734Z,59.62
2018-02-04T16:10:50.985Z,59.42
2018-02-04T16:13:17.211Z,60.14
2018-02-04T16:15:43.527Z,60.45
2018-02-04T16:18:09.829Z,61.43
2018-02-04T16:20:36.150Z,61.57
2018-02-04T16:23:02.129Z,60.77
2018-02-04T16:25:28.172Z,60.83
2018-02-04T16:27:54.106Z,61.00
2018-02-04T16:30:20.107Z,61.01
2018-02-04T16:32:46.149Z,62.09
2018-02-04T16:35:12.128Z,62.32
2018-02-04T16:37:38.135Z,61.33
2018-02-04T16:40:04.220Z,62.18
2018-02-04T16:42:30.227Z,61.51
2018-02-04T16:44:56.165Z,61.56
2018-02-04T16:47:22.279Z,61.85
2018-02-04T16:49:48.239Z,62.51
2018-02-04T16:52:15.030Z,62.10
2018-02-04T16:54:41.073Z,61.75
2018-02-04T16:57:07.180Z,62.22
2018-02-04T17:04:39.472Z,62.83
2018-02-04T17:07:06.926Z,62.35
2018-02-04T17:09:33.172Z,62.46
2018-02-04T17:11:59.230Z,62.84
2018-02-04T17:14:25.268Z,63.17
2018-02-04T17:16:51.220Z,62.24
2018-02-04T17:19:17.244Z,62.84
2018-02-04T17:21:43.260Z,62.50
2018-02-04T17:24:09.222Z,63.03
2018-02-04T17:26:35.212Z,63.02
2018-02-04T17:29:01.195Z,62.52
2018-02-04T17:31:27.140Z,63.00
2018-02-04T17:33:53.089Z,62.62
2018-02-04T17:36:19.035Z,63.40
2018-02-04T17:38:44.986Z,63.21
2018-02-04T17:41:10.962Z,62.86
2018-02-04T17:43:37.034Z,62.37
2018-02-04T17:46:03.065Z,62.14
2018-02-04T17:48:29.084Z,62.14
2018-02-04T17:50:55.029Z,62.83
2018-02-04T17:53:21.019Z,62.94
2018-02-04T17:55:48.161Z,63.27
2018-02-04T17:58:14.139Z,62.87
2018-02-04T18:00:40.155Z,62.62
2018-02-04T18:03:06.127Z,62.54
2018-02-04T18:05:32.082Z,62.58
2018-02-04T18:07:58.935Z,62.67
2018-02-04T18:10:24.878Z,62.41
2018-02-04T18:12:50.850Z,62.28
2018-02-04T18:15:16.808Z,62.50
2018-02-04T18:17:42.755Z,63.13
2018-02-04T18:20:08.706Z,63.26
2018-02-04T18:22:34.653Z,63.12
2018-02-04T18:25:00.637Z,63.71
2018-02-04T18:27:26.599Z,63.72
2018-02-04T18:29:52.553Z,63.47
2018-02-04T18:32:18.527Z,62.48
2018-02-04T18:34:44.601Z,61.95
2018-02-04T18:37:10.544Z,62.56
2018-02-04T18:39:36.493Z,64.29
2018-02-04T18:42:02.419Z,64.58
2018-02-04T18:44:28.371Z,65.06
2018-02-04T18:46:54.319Z,63.42
2018-02-04T18:49:20.283Z,62.33
2018-02-04T18:51:46.253Z,63.19
2018-02-04T18:54:12.213Z,63.81
2018-02-04T18:56:38.161Z,64.00
2018-02-04T18:59:04.141Z,62.74
2018-02-04T19:01:30.133Z,62.67
2018-02-04T19:03:56.123Z,60.36
2018-02-04T19:06:22.066Z,62.43
2018-02-04T19:08:48.349Z,61.59
2018-02-04T19:11:14.302Z,62.06
2018-02-04T19:13:40.255Z,62.52
2018-02-04T19:16:06.235Z,61.64
2018-02-04T19:18:32.203Z,62.21
2018-02-04T19:20:58.209Z,62.43
2018-02-04T19:23:24.175Z,63.11
2018-02-04T19:25:50.135Z,63.00
2018-02-04T19:28:16.081Z,61.95
2018-02-04T19:30:42.038Z,61.85
2018-02-04T19:33:07.983Z,62.31
2018-02-04T19:38:05.182Z,61.24
2018-02-04T19:40:31.114Z,62.03
2018-02-04T19:42:57.072Z,63.04
2018-02-04T19:45:23.004Z,63.88
2018-02-04T19:47:48.990Z,64.60
2018-02-04T19:50:15.020Z,64.59
2018-02-04T19:52:41.166Z,63.87
2018-02-04T19:55:07.381Z,62.45
2018-02-04T19:57:33.740Z,61.79
2018-02-04T20:00:00.392Z,60.95
2018-02-04T20:02:26.917Z,60.99
2018-02-04T20:04:53.109Z,61.40
2018-02-04T20:07:19.323Z,60.00
2018-02-04T20:09:45.551Z,60.07
2018-02-04T20:12:11.773Z,62.31
2018-02-04T20:14:38.023Z,64.41
2018-02-04T20:17:04.284Z,62.99
2018-02-04T20:19:30.555Z,61.08
2018-02-04T20:21:56.577Z,60.27
2018-02-04T20:24:22.562Z,59.87
2018-02-04T20:26:48.575Z,59.97
2018-02-04T20:29:14.542Z,60.43
2018-02-04T20:31:40.549Z,61.65
2018-02-04T20:34:06.877Z,62.26
2018-02-04T20:36:32.840Z,61.63
2018-02-04T20:38:59.109Z,60.84
2018-02-04T20:41:25.077Z,60.80
2018-02-04T20:43:51.025Z,60.60
2018-02-04T20:46:17.004Z,62.09
2018-02-04T20:48:43.049Z,62.00
2018-02-04T20:51:09.010Z,63.39
2018-02-04T20:53:34.985Z,63.41
2018-02-04T20:56:00.934Z,61.46
2018-02-04T20:58:26.887Z,60.87
2018-02-04T21:00:52.837Z,60.59
2018-02-04T21:03:18.781Z,59.99
2018-02-04T21:05:44.734Z,60.04
2018-02-04T21:08:10.762Z,60.42
2018-02-04T21:10:36.641Z,61.04
2018-02-04T21:13:02.639Z,60.50
2018-02-04T21:15:28.589Z,61.70
2018-02-04T21:17:54.565Z,61.38
2018-02-04T21:20:20.534Z,61.60
2018-02-04T21:22:46.489Z,60.38
2018-02-04T21:25:12.435Z,60.01
2018-02-04T21:27:38.395Z,60.11
2018-02-04T21:30:04.421Z,61.96
2018-02-04T21:32:30.748Z,62.09
2018-02-04T21:34:56.807Z,62.94
2018-02-04T21:37:22.768Z,61.12
2018-02-04T21:39:48.703Z,60.53
2018-02-04T21:42:14.657Z,61.34
2018-02-04T21:44:40.598Z,62.01
2018-02-04T21:47:06.760Z,61.40
2018-02-04T21:49:32.721Z,61.33
2018-02-04T21:51:58.659Z,60.84
2018-02-04T21:54:24.599Z,60.77
2018-02-04T21:56:50.531Z,60.61
2018-02-04T21:59:16.502Z,60.73
2018-02-04T22:01:42.718Z,61.33
2018-02-04T22:04:08.684Z,60.58
2018-02-04T22:06:34.604Z,59.45
2018-02-04T22:09:00.554Z,59.94
2018-02-04T22:11:26.498Z,60.41
2018-02-04T22:13:52.453Z,60.86
2018-02-04T22:16:18.396Z,62.36
2018-02-04T22:18:44.334Z,63.11
2018-02-04T22:21:10.276Z,61.48
2018-02-04T22:23:36.207Z,61.10
2018-02-04T22:26:02.146Z,61.67
2018-02-04T22:28:28.090Z,61.53
2018-02-04T22:30:54.052Z,61.92
2018-02-04T22:33:19.990Z,61.93
2018-02-04T22:35:45.917Z,61.59
2018-02-04T22:38:11.884Z,63.34
2018-02-04T22:40:37.815Z,62.37
2018-02-04T22:43:03.810Z,61.54
2018-02-04T22:45:29.743Z,61.19
2018-02-04T22:47:55.700Z,59.56
2018-02-04T22:50:21.646Z,59.44
2018-02-04T22:52:47.611Z,60.19
2018-02-04T22:55:13.534Z,59.96
2018-02-04T22:57:39.470Z,60.06
2018-02-04T23:00:08.152Z,60.08
2018-02-04T23:02:34.641Z,60.78
2018-02-04T23:05:00.575Z,60.96
2018-02-04T23:07:26.514Z,62.17
2018-02-04T23:09:52.434Z,62.78
2018-02-04T23:12:18.451Z,62.52
2018-02-04T23:14:44.379Z,62.82
2018-02-04T23:17:10.316Z,64.26
2018-02-04T23:19:36.263Z,62.71
2018-02-04T23:22:02.207Z,61.47
2018-02-04T23:24:28.146Z,61.22
2018-02-04T23:26:54.083Z,62.73
2018-02-04T23:29:20.027Z,62.09
2018-02-04T23:31:45.965Z,60.22
2018-02-04T23:34:11.907Z,60.16
2018-02-04T23:36:37.873Z,60.40
2018-02-04T23:39:03.802Z,61.49
2018-02-04T23:41:29.774Z,60.25
2018-02-04T23:43:55.775Z,60.81
2018-02-04T23:46:21.723Z,61.50
2018-02-04T23:48:47.661Z,61.69
2018-02-04T23:51:13.587Z,60.84
2018-02-04T23:53:39.523Z,60.00
2018-02-04T23:56:05.484Z,59.95
2018-02-04T23:58:31.421Z,61.38
